KIOB

Mount Sterling-Montgomery County Airport

Mount Sterling, Kentucky, USA
METAR KIOB 201615Z AUTO 19008KT 10SM SCT021 SCT028 28/22 A3001 RMK AO2
Observed Flight Rules
Aug-20 @ 16:15 UTC (11 minutes ago) Visual Flight Rules
Wind Visibility Clouds
190° at 8 knots 10 miles
  • Scattered at 2,100' AGL
  • Scattered at 2,800' AGL
Temperatures Readings
Current 28°C / 82°F
Dewpoint 22°C / 72°F
Humidity 70%
Altimeter 30.01" Hg
Pressure 1016 hPa
Elevation 311
METAR KIOB 201615Z AUTO 19008KT 10SM SCT021 SCT028 28/22 A3001 RMK AO2
Observed Flight Rules
Aug-20 @ 16:15 UTC
(11 minutes ago)
VFR
Wind Visibility
190° at 8 knots 10 miles
Clouds
  • Scattered at 2,100' AGL
  • Scattered at 2,800' AGL
Temperature Dewpoint
28°C / 82°F 22°C / 72°F
Humidity Altimeter Pressure
70% 30.01" Hg 1016 hPa